LiveATC.Net - Listen to live air traffic control over the Internet!


ICAO: ENCN  IATA: KRS   Airport: Kristiansand Airport - Kjevik
City: Kristiansand
Country: Norway   Continent: Europe
ENCN METAR Weather: ENCN 161120Z 06004KT 7000 -SHRA SCT002 SCT009 01/01 Q0995
ENCN Flight Activity (FlightAware)

ENCN Tower/Approach
Feed Status: UP   Listeners: 1
Listen in your browser - HTML5 player (in browser, HTML5)
Click here to listen with your own player (launches your MP3 player)
Archive Access: ENCN Tower/Approach
FacilityFrequency
Kjevik Tower118.100
Kjevik Tower/Approach119.950

NOTICE

Unauthorized use prohibited. See LiveATC.net Terms of Service


Airport/ARTCC Code
Frequency Search
(e.g., 124.400, 128.75)
Site-wide search
 


Browse Feeds
Top 50 Feeds
Coverage Map
Bad Weather Areas

LiveATC FAQ
Offer LiveATC feed
Contact LiveATC.net
Press Inquiries

LiveATC on iPhone
LiveATC on Android

Windows Phone
Windows 8/10

LiveATC Mobile
(Mobile browser)

ATC Audio Archives
Interesting Recordings

LiveATC Forums


Home Page
About LiveATC.net
Make a Donation
Terms of Use
Privacy Policy

Canadian Air Freqs

AIRMETs/SIGMETs

FAA Airport Status
Nat'l Airspace Status
Arrival Demand Charts


Server Software By:
Icecast.org
Liquidsoap